Terminal Aerodrome Forecast
Issued by NWS Wilmington, OH

Current Version | Previous Version | Text Only | Print | Product List | Glossary Off
Versions: 1 2 3 4 5 6 7 8 9 10 11 12 13 14 15 16

977
FTUS41 KILN 250533
TAFCMH
TAF
KCMH 250533Z 2506/2606 18005KT P6SM BKN150
     FM251400 20011KT P6SM BKN100
     FM252300 16008KT P6SM OVC070=

USA.gov is the U.S. government's official web portal to all federal, state and local government web resources and services.